Kyokuhoumaru No.12 — JL5963 — position and weather

sailwx.info

Track history (hours):
 
Tides and Currents Weather Stations Pressure Air Temp Water Temp Dewpoint Dewpoint Depression Visibility Wind Speed Wind Dir Waves Ship Positions

Kyokuhoumaru No.12

Last reported at 2016-Dec-07 03:06 UTC. Time now 2016-Dec-09 09:41 UTC.
Position N 34°28' E 135°14'.

Length 57 m.

Type: Tanker. MMSI: 431500879.

Date/timePositionNaut miles runAvg speedWind from/ knotsBaromVisibWave heightAir tempDewpointWater temp
2016-Dec-07 03:06N 34°28' E 135°14'7 9.5
2016-Dec-07 02:24N 34°32' E 135°21'1 0.1
2016-Dec-06 15:33N 34°32' E 135°20'0 0.0
2016-Dec-06 14:21N 34°32' E 135°20'0 0.0
2016-Dec-06 13:33N 34°32' E 135°20'0 0.0
2016-Dec-06 12:33N 34°32' E 135°20'0 0.0
2016-Dec-06 11:21N 34°32' E 135°20'0 0.0
2016-Dec-06 10:33N 34°32' E 135°20'0 0.0
2016-Dec-06 09:21N 34°32' E 135°20'0 0.0
2016-Dec-06 08:33N 34°32' E 135°20'6 3.0
2016-Dec-06 06:29N 34°34' E 135°13'9 9.0
2016-Dec-06 05:29N 34°36' E 135°02'  
2016-Dec-01 04:33N 35°24' E 139°43'9 0.4
2016-Nov-30 06:05N 35°31' E 139°50'1 0.2
2016-Nov-30 01:30N 35°30' E 139°51'8 8.0
2016-Nov-30 00:33N 35°24' E 139°46'  
Track history (hours):
 
Tides and Currents Weather Stations Pressure Air Temp Water Temp Dewpoint Dewpoint Depression Visibility Wind Speed Wind Dir Waves Ship Positions

Kyokuhoumaru No.12

Last reported at 2016-Dec-07 03:06 UTC. Time now 2016-Dec-09 09:41 UTC.
Position N 34°28' E 135°14'.

Length 57 m.

Type: Tanker. MMSI: 431500879.

Date/timePositionNaut miles runAvg speedWind from/ knotsBaromVisibWave heightAir tempDewpointWater temp
2016-Dec-07 03:06N 34°28' E 135°14'7 9.5
2016-Dec-07 02:24N 34°32' E 135°21'1 0.1
2016-Dec-06 15:33N 34°32' E 135°20'0 0.0
2016-Dec-06 14:21N 34°32' E 135°20'0 0.0
2016-Dec-06 13:33N 34°32' E 135°20'0 0.0
2016-Dec-06 12:33N 34°32' E 135°20'0 0.0
2016-Dec-06 11:21N 34°32' E 135°20'0 0.0
2016-Dec-06 10:33N 34°32' E 135°20'0 0.0
2016-Dec-06 09:21N 34°32' E 135°20'0 0.0
2016-Dec-06 08:33N 34°32' E 135°20'6 3.0
2016-Dec-06 06:29N 34°34' E 135°13'9 9.0
2016-Dec-06 05:29N 34°36' E 135°02'  
2016-Dec-01 04:33N 35°24' E 139°43'9 0.4
2016-Nov-30 06:05N 35°31' E 139°50'1 0.2
2016-Nov-30 01:30N 35°30' E 139°51'8 8.0
2016-Nov-30 00:33N 35°24' E 139°46'  

Dump ship's entire track history